Time;durP1;ratioP1;P1;durP2;ratioP2;P2;SDS_P1;SDS_P2;PMS_P1;PMS_P2;Temp;Humidity;BMP_temperature;BMP_pressure;BME280_temperature;BME280_humidity;BME280_pressure;Samples;Min_cycle;Max_cycle;Signal;HPM_P1;HPM_P2
2022/12/19 00:01:15;;;;;;;;;;;-2.70;99.90;;;;;;5044072;28;19928;-76
2022/12/19 00:03:42;;;;;;;;;;;-2.60;99.90;;;;;;5045868;28;19978;-76
2022/12/19 00:06:08;;;;;;;;;;;-2.60;99.90;;;;;;5044919;28;20222;-77
2022/12/19 00:08:35;;;;;;;;;;;-2.60;99.90;;;;;;5046042;28;19951;-78
2022/12/19 00:11:02;;;;;;;;;;;-2.70;99.90;;;;;;5040936;28;19955;-76
2022/12/19 00:13:32;;;;;;;;;;;-2.60;99.90;;;;;;5044547;28;20475;-76
2022/12/19 00:16:00;;;;;;;;;;;-2.60;99.90;;;;;;5044216;28;19929;-76
2022/12/19 00:18:27;;;;;;;;;;;-2.60;99.90;;;;;;5044090;28;20281;-77
2022/12/19 00:20:54;;;;;;;;;;;-2.60;99.90;;;;;;5042957;28;19951;-75
2022/12/19 00:23:21;;;;;;;;;;;-2.60;99.90;;;;;;5044372;28;19937;-76
2022/12/19 00:25:47;;;;;;;;;;;-2.60;99.90;;;;;;5042341;28;19929;-77
2022/12/19 00:28:14;;;;;;;;;;;-2.60;99.90;;;;;;5044313;28;19929;-76
2022/12/19 00:30:42;;;;;;;;;;;-2.60;99.90;;;;;;5039846;28;19937;-75
2022/12/19 00:33:08;;;;;;;;;;;-2.60;99.90;;;;;;5042981;28;19936;-76
2022/12/19 00:35:35;;;;;;;;;;;-2.60;99.90;;;;;;5042264;28;19940;-76
2022/12/19 00:38:02;;;;;;;;;;;-2.50;99.90;;;;;;5044778;28;19960;-75
2022/12/19 00:40:29;;;;;;;;;;;-2.50;99.90;;;;;;5042277;28;19935;-76
2022/12/19 00:42:55;;;;;;;;;;;-2.60;99.90;;;;;;5044301;28;19929;-77
2022/12/19 00:45:22;;;;;;;;;;;-2.50;99.90;;;;;;5045622;28;20475;-77
2022/12/19 00:47:50;;;;;;;;;;;-2.60;99.90;;;;;;5045366;28;19935;-77
2022/12/19 00:50:17;;;;;;;;;;;-2.50;99.90;;;;;;5043989;28;19929;-77
2022/12/19 00:52:43;;;;;;;;;;;-2.50;99.90;;;;;;5045250;28;19933;-76
2022/12/19 00:55:10;;;;;;;;;;;-2.50;99.90;;;;;;5043056;28;19929;-75
2022/12/19 00:57:36;;;;;;;;;;;-2.50;99.90;;;;;;5046072;28;20000;-75
2022/12/19 01:00:03;;;;;;;;;;;-2.50;99.90;;;;;;5045438;28;19932;-75
2022/12/19 01:02:30;;;;;;;;;;;-2.50;99.90;;;;;;5041850;28;19929;-75
2022/12/19 01:04:58;;;;;;;;;;;-2.50;99.90;;;;;;5045522;28;19932;-77
2022/12/19 01:07:24;;;;;;;;;;;-2.50;99.90;;;;;;5044301;28;19940;-77
2022/12/19 01:09:51;;;;;;;;;;;-2.50;99.90;;;;;;5042302;28;19939;-77
2022/12/19 01:15:02;;;;;;;;;;;-2.40;99.90;;;;;;5044569;28;19952;-77
2022/12/19 01:17:29;;;;;;;;;;;-2.40;99.90;;;;;;5040323;28;19929;-76
2022/12/19 01:19:55;;;;;;;;;;;-2.40;99.90;;;;;;5045237;28;19939;-76
2022/12/19 01:22:23;;;;;;;;;;;-2.40;99.90;;;;;;5043997;28;19935;-77
2022/12/19 01:24:50;;;;;;;;;;;-2.40;99.90;;;;;;5044807;28;19932;-77
2022/12/19 01:27:16;;;;;;;;;;;-2.40;99.90;;;;;;5039917;28;19928;-77
2022/12/19 01:29:43;;;;;;;;;;;-2.40;99.90;;;;;;5043021;28;19932;-77
2022/12/19 01:32:09;;;;;;;;;;;-2.40;99.90;;;;;;5040445;28;20015;-77
2022/12/19 01:34:36;;;;;;;;;;;-2.30;99.90;;;;;;5041956;28;19929;-77
2022/12/19 01:37:02;;;;;;;;;;;-2.40;99.90;;;;;;5042952;28;19936;-75
2022/12/19 01:39:30;;;;;;;;;;;-2.40;99.90;;;;;;5042259;28;20389;-77
2022/12/19 01:41:57;;;;;;;;;;;-2.30;99.90;;;;;;5041075;28;19935;-76
2022/12/19 01:44:24;;;;;;;;;;;-2.30;99.90;;;;;;5040883;28;19940;-76
2022/12/19 01:46:52;;;;;;;;;;;-2.30;99.90;;;;;;5037651;28;19929;-75
2022/12/19 01:49:21;;;;;;;;;;;-2.30;99.90;;;;;;5045933;28;19963;-76
2022/12/19 01:51:48;;;;;;;;;;;-2.40;99.90;;;;;;5042294;28;19936;-78
2022/12/19 01:54:16;;;;;;;;;;;-2.30;99.90;;;;;;5040997;28;19929;-78
2022/12/19 01:56:45;;;;;;;;;;;-2.30;99.90;;;;;;5041565;28;19992;-76
2022/12/19 01:59:16;;;;;;;;;;;-2.30;99.90;;;;;;5041097;28;19932;-75
2022/12/19 02:01:42;;;;;;;;;;;-2.30;99.90;;;;;;5038209;28;19940;-77
2022/12/19 02:04:10;;;;;;;;;;;-2.30;99.90;;;;;;5035937;28;19940;-77
2022/12/19 02:06:38;;;;;;;;;;;-2.30;99.90;;;;;;5039738;28;20396;-77
2022/12/19 02:09:05;;;;;;;;;;;-2.30;99.90;;;;;;5040036;28;20792;-77
2022/12/19 02:11:31;;;;;;;;;;;-2.30;99.90;;;;;;5039508;28;19929;-77
2022/12/19 02:13:59;;;;;;;;;;;-2.30;99.90;;;;;;5042785;28;19929;-76
2022/12/19 02:16:32;;;;;;;;;;;-2.20;99.90;;;;;;5040300;28;19939;-76
2022/12/19 02:19:04;;;;;;;;;;;-2.20;99.90;;;;;;5038465;28;19925;-76
2022/12/19 02:21:37;;;;;;;;;;;-2.20;99.90;;;;;;5038199;28;19940;-77
2022/12/19 02:24:22;;;;;;;;;;;-2.20;99.90;;;;;;5038900;28;19933;-77
2022/12/19 02:26:56;;;;;;;;;;;-2.20;99.90;;;;;;4976778;28;1742052;-76
2022/12/19 02:29:32;;;;;;;;;;;-2.20;99.90;;;;;;5042892;28;19932;-76
2022/12/19 02:32:03;;;;;;;;;;;-2.20;99.90;;;;;;5039406;28;19939;-76
2022/12/19 02:34:33;;;;;;;;;;;-2.20;99.90;;;;;;5042460;28;20586;-77
2022/12/19 02:37:01;;;;;;;;;;;-2.20;99.90;;;;;;5042583;28;19936;-76
2022/12/19 02:39:32;;;;;;;;;;;-2.10;99.90;;;;;;5041558;28;19925;-77
2022/12/19 02:41:59;;;;;;;;;;;-2.20;99.90;;;;;;5042266;28;19929;-77
2022/12/19 02:44:29;;;;;;;;;;;-2.20;99.90;;;;;;5041047;28;19936;-74
2022/12/19 02:46:56;;;;;;;;;;;-2.10;99.90;;;;;;5041536;28;19963;-77
2022/12/19 02:49:24;;;;;;;;;;;-2.10;99.90;;;;;;5039993;28;19940;-77
2022/12/19 02:51:51;;;;;;;;;;;-2.10;99.90;;;;;;5040417;28;19928;-76
2022/12/19 02:54:17;;;;;;;;;;;-2.10;99.90;;;;;;5042051;28;19929;-76
2022/12/19 02:56:47;;;;;;;;;;;-2.10;99.90;;;;;;5039055;28;19929;-77
2022/12/19 02:59:17;;;;;;;;;;;-2.10;99.90;;;;;;5038808;28;19932;-74
2022/12/19 03:01:47;;;;;;;;;;;-2.10;99.90;;;;;;5035268;28;19928;-77
2022/12/19 03:04:21;;;;;;;;;;;-2.10;99.90;;;;;;5039254;28;19933;-75
2022/12/19 03:06:51;;;;;;;;;;;-2.00;99.90;;;;;;5039489;28;20381;-76
2022/12/19 03:09:20;;;;;;;;;;;-2.00;99.90;;;;;;5037637;28;19928;-77
2022/12/19 03:11:49;;;;;;;;;;;-2.00;99.90;;;;;;5038705;28;19929;-75
2022/12/19 03:14:17;;;;;;;;;;;-2.00;99.90;;;;;;5041663;28;19929;-78
2022/12/19 03:16:43;;;;;;;;;;;-2.00;99.90;;;;;;5039469;28;20086;-76
2022/12/19 03:19:11;;;;;;;;;;;-2.00;99.90;;;;;;5039913;28;19929;-76
2022/12/19 03:21:39;;;;;;;;;;;-2.00;99.90;;;;;;5038919;28;19936;-76
2022/12/19 03:24:07;;;;;;;;;;;-2.00;99.90;;;;;;5038859;28;19929;-77
2022/12/19 03:26:36;;;;;;;;;;;-2.00;99.90;;;;;;5039058;28;19928;-76
2022/12/19 03:29:06;;;;;;;;;;;-2.00;99.90;;;;;;5034416;28;19933;-76
2022/12/19 03:31:33;;;;;;;;;;;-2.00;99.90;;;;;;5033110;28;19928;-77
2022/12/19 03:34:01;;;;;;;;;;;-2.00;99.90;;;;;;5040737;28;19929;-76
2022/12/19 03:36:30;;;;;;;;;;;-2.00;99.90;;;;;;5040072;28;19935;-77
2022/12/19 03:38:59;;;;;;;;;;;-2.00;99.90;;;;;;5039305;28;19933;-76
2022/12/19 03:44:14;;;;;;;;;;;-2.00;99.90;;;;;;5039693;28;19952;-75
2022/12/19 03:46:43;;;;;;;;;;;-1.90;99.90;;;;;;5036571;28;19929;-76
2022/12/19 03:49:09;;;;;;;;;;;-1.90;99.90;;;;;;5034769;28;20447;-76
2022/12/19 03:51:39;;;;;;;;;;;-1.90;99.90;;;;;;5040115;28;19929;-76
2022/12/19 03:54:08;;;;;;;;;;;-1.90;99.90;;;;;;5038772;28;19929;-77
2022/12/19 03:56:40;;;;;;;;;;;-1.90;99.90;;;;;;5034941;28;19940;-77
2022/12/19 03:59:09;;;;;;;;;;;-1.90;99.90;;;;;;5039658;28;19964;-76
2022/12/19 04:01:36;;;;;;;;;;;-1.90;99.90;;;;;;5036716;28;19929;-78
2022/12/19 04:04:03;;;;;;;;;;;-1.90;99.90;;;;;;5040329;28;19928;-77
2022/12/19 04:06:31;;;;;;;;;;;-1.90;99.90;;;;;;5039448;28;20383;-76
2022/12/19 04:08:59;;;;;;;;;;;-1.90;99.90;;;;;;5038312;28;19939;-77
2022/12/19 04:11:26;;;;;;;;;;;-1.90;99.90;;;;;;5037481;28;20587;-77
2022/12/19 04:13:57;;;;;;;;;;;-1.80;99.90;;;;;;5040613;28;19932;-76
2022/12/19 04:16:28;;;;;;;;;;;-1.90;99.90;;;;;;5037496;28;19933;-76
2022/12/19 04:18:58;;;;;;;;;;;-1.90;99.90;;;;;;5037971;28;20019;-75
2022/12/19 04:21:27;;;;;;;;;;;-1.90;99.90;;;;;;5039384;28;19963;-77
2022/12/19 04:23:55;;;;;;;;;;;-1.90;99.90;;;;;;5035519;28;19933;-75
2022/12/19 04:26:23;;;;;;;;;;;-1.80;99.90;;;;;;5040304;28;19933;-76
2022/12/19 04:28:50;;;;;;;;;;;-1.80;99.90;;;;;;5038070;28;19929;-76
2022/12/19 04:31:19;;;;;;;;;;;-1.80;99.90;;;;;;5038211;28;19929;-76
2022/12/19 04:33:46;;;;;;;;;;;-1.80;99.90;;;;;;5041478;28;19928;-77
2022/12/19 04:36:12;;;;;;;;;;;-1.80;99.90;;;;;;5042179;28;19940;-77
2022/12/19 04:38:39;;;;;;;;;;;-1.80;99.90;;;;;;5041036;28;19929;-77
2022/12/19 04:41:06;;;;;;;;;;;-1.80;99.90;;;;;;5038954;28;19929;-76
2022/12/19 04:43:32;;;;;;;;;;;-1.80;99.90;;;;;;5042243;28;19935;-75
2022/12/19 04:45:59;;;;;;;;;;;-1.80;99.90;;;;;;5040242;28;19936;-77
2022/12/19 04:48:27;;;;;;;;;;;-1.70;99.90;;;;;;5039843;28;19929;-77
2022/12/19 04:50:54;;;;;;;;;;;-1.80;99.90;;;;;;5041375;28;20500;-76
2022/12/19 04:53:21;;;;;;;;;;;-1.80;99.90;;;;;;5038819;28;19936;-76
2022/12/19 04:55:48;;;;;;;;;;;-1.80;99.90;;;;;;5037634;28;20538;-77
2022/12/19 04:58:14;;;;;;;;;;;-1.70;99.90;;;;;;5040022;28;20312;-75
2022/12/19 05:00:41;;;;;;;;;;;-1.70;99.90;;;;;;5035167;28;20337;-76
2022/12/19 05:03:07;;;;;;;;;;;-1.70;99.90;;;;;;5034867;28;19967;-76
2022/12/19 05:05:35;;;;;;;;;;;-1.70;99.90;;;;;;5036404;28;19940;-77
2022/12/19 05:08:02;;;;;;;;;;;-1.70;99.90;;;;;;5034707;28;19935;-76
2022/12/19 05:10:28;;;;;;;;;;;-1.70;99.90;;;;;;5035257;28;19936;-78
2022/12/19 05:12:55;;;;;;;;;;;-1.70;99.90;;;;;;5038202;28;19936;-77
2022/12/19 05:15:22;;;;;;;;;;;-1.70;99.90;;;;;;5036996;28;19944;-76
2022/12/19 05:17:48;;;;;;;;;;;-1.70;99.90;;;;;;5037603;28;19929;-77
2022/12/19 05:20:15;;;;;;;;;;;-1.70;99.90;;;;;;5037167;28;19928;-76
2022/12/19 05:22:43;;;;;;;;;;;-1.70;99.90;;;;;;5038248;28;19936;-77
2022/12/19 05:25:10;;;;;;;;;;;-1.70;99.90;;;;;;5035102;28;19929;-76
2022/12/19 05:27:36;;;;;;;;;;;-1.70;99.90;;;;;;5039125;28;19988;-76
2022/12/19 05:30:03;;;;;;;;;;;-1.70;99.90;;;;;;5040139;28;19928;-76
2022/12/19 05:32:31;;;;;;;;;;;-1.60;99.90;;;;;;5041450;28;19933;-75
2022/12/19 05:34:57;;;;;;;;;;;-1.60;99.90;;;;;;5042802;28;19964;-77
2022/12/19 05:37:24;;;;;;;;;;;-1.70;99.90;;;;;;5042190;28;19925;-75
2022/12/19 05:39:51;;;;;;;;;;;-1.60;99.90;;;;;;5041481;28;19933;-76
2022/12/19 05:42:18;;;;;;;;;;;-1.60;99.90;;;;;;5043041;28;19929;-78
2022/12/19 05:44:45;;;;;;;;;;;-1.60;99.90;;;;;;5040922;28;19929;-77
2022/12/19 05:47:11;;;;;;;;;;;-1.60;99.90;;;;;;5039877;28;19929;-76
2022/12/19 05:49:38;;;;;;;;;;;-1.60;99.90;;;;;;5036563;28;19964;-77
2022/12/19 05:52:04;;;;;;;;;;;-1.60;99.90;;;;;;5039263;28;19995;-77
2022/12/19 05:54:31;;;;;;;;;;;-1.50;99.90;;;;;;5042450;28;19952;-76
2022/12/19 05:56:59;;;;;;;;;;;-1.50;99.90;;;;;;5041759;28;19928;-78
2022/12/19 05:59:25;;;;;;;;;;;-1.40;99.90;;;;;;5040770;28;19935;-76
2022/12/19 06:01:53;;;;;;;;;;;-1.40;99.90;;;;;;5037855;28;19936;-77
2022/12/19 06:04:19;;;;;;;;;;;-1.40;99.90;;;;;;5043999;28;19940;-77
2022/12/19 06:06:46;;;;;;;;;;;-1.40;99.90;;;;;;5043487;28;19936;-76
2022/12/19 06:09:12;;;;;;;;;;;-1.40;99.90;;;;;;5042029;28;19932;-76
2022/12/19 06:11:39;;;;;;;;;;;-1.40;99.90;;;;;;5043166;28;19929;-76
2022/12/19 06:14:08;;;;;;;;;;;-1.40;99.90;;;;;;5041749;28;19936;-76
2022/12/19 06:16:35;;;;;;;;;;;-1.40;99.90;;;;;;5040747;28;19929;-76
2022/12/19 06:19:01;;;;;;;;;;;-1.40;99.90;;;;;;5042766;28;19932;-77
2022/12/19 06:21:28;;;;;;;;;;;-1.40;99.90;;;;;;5041720;28;19928;-77
2022/12/19 06:23:54;;;;;;;;;;;-1.40;99.90;;;;;;5044236;28;19940;-76
2022/12/19 06:26:21;;;;;;;;;;;-1.40;99.90;;;;;;5043179;28;20452;-78
2022/12/19 06:28:48;;;;;;;;;;;-1.40;99.90;;;;;;5045036;28;19936;-77
2022/12/19 06:31:17;;;;;;;;;;;-1.40;99.90;;;;;;5043943;28;19928;-77
2022/12/19 06:33:43;;;;;;;;;;;-1.40;99.90;;;;;;5045923;28;19968;-77
2022/12/19 06:36:11;;;;;;;;;;;-1.30;99.90;;;;;;5046512;28;19929;-76
2022/12/19 06:38:38;;;;;;;;;;;-1.40;99.90;;;;;;5043786;28;19929;-77
2022/12/19 06:43:49;;;;;;;;;;;-1.40;99.90;;;;;;5046280;28;20207;-76
2022/12/19 06:46:16;;;;;;;;;;;-1.30;99.90;;;;;;5044158;28;19948;-76
2022/12/19 06:48:43;;;;;;;;;;;-1.40;99.90;;;;;;5043969;28;19929;-76
2022/12/19 06:51:09;;;;;;;;;;;-1.30;99.90;;;;;;5042109;28;19929;-76
2022/12/19 06:53:36;;;;;;;;;;;-1.30;99.90;;;;;;5044588;28;19929;-77
2022/12/19 06:56:03;;;;;;;;;;;-1.30;99.90;;;;;;5040980;28;19929;-78
2022/12/19 06:58:30;;;;;;;;;;;-1.30;99.90;;;;;;5044024;28;19929;-77
2022/12/19 07:00:56;;;;;;;;;;;-1.30;99.90;;;;;;5042268;28;19933;-76
2022/12/19 07:03:26;;;;;;;;;;;-1.30;99.90;;;;;;5042702;28;19929;-77
2022/12/19 07:05:53;;;;;;;;;;;-1.30;99.90;;;;;;5040502;28;19937;-77
2022/12/19 07:08:19;;;;;;;;;;;-1.30;99.90;;;;;;5041078;28;19933;-76
2022/12/19 07:10:46;;;;;;;;;;;-1.30;99.90;;;;;;5040766;28;19959;-77
2022/12/19 07:13:13;;;;;;;;;;;-1.30;99.90;;;;;;5043953;28;19933;-77
2022/12/19 07:15:40;;;;;;;;;;;-1.20;99.90;;;;;;5039662;28;19937;-76
2022/12/19 07:18:07;;;;;;;;;;;-1.20;99.90;;;;;;5043500;28;19936;-77
2022/12/19 07:20:36;;;;;;;;;;;-1.20;99.90;;;;;;5039271;28;19937;-77
2022/12/19 07:23:04;;;;;;;;;;;-1.20;99.90;;;;;;5043615;28;19933;-77
2022/12/19 07:25:31;;;;;;;;;;;-1.20;99.90;;;;;;5041697;28;19936;-76
2022/12/19 07:27:57;;;;;;;;;;;-1.20;99.90;;;;;;5044458;28;19929;-76
2022/12/19 07:30:24;;;;;;;;;;;-1.20;99.90;;;;;;5038428;28;19933;-77
2022/12/19 07:32:50;;;;;;;;;;;-1.20;99.90;;;;;;5041072;28;20545;-77
2022/12/19 07:35:17;;;;;;;;;;;-1.20;99.90;;;;;;5041901;28;19940;-76
2022/12/19 07:37:45;;;;;;;;;;;-1.20;99.90;;;;;;5042198;28;19925;-77
2022/12/19 07:40:12;;;;;;;;;;;-1.20;99.90;;;;;;5041049;28;19929;-76
2022/12/19 07:42:38;;;;;;;;;;;-1.20;99.90;;;;;;5041642;28;19924;-77
2022/12/19 07:45:05;;;;;;;;;;;-1.20;99.90;;;;;;5041422;28;19928;-76
2022/12/19 07:47:32;;;;;;;;;;;-1.20;99.90;;;;;;5037379;28;19929;-77
2022/12/19 07:49:59;;;;;;;;;;;-1.20;99.90;;;;;;5039735;28;19933;-77
2022/12/19 07:52:25;;;;;;;;;;;-1.10;99.90;;;;;;5042794;28;19975;-77
2022/12/19 07:54:53;;;;;;;;;;;-1.10;99.90;;;;;;5040672;28;19933;-77
2022/12/19 07:57:20;;;;;;;;;;;-1.10;99.90;;;;;;5038820;28;20405;-76
2022/12/19 07:59:46;;;;;;;;;;;-1.10;99.90;;;;;;5039671;28;20376;-76
2022/12/19 08:02:13;;;;;;;;;;;-1.10;99.90;;;;;;5039137;28;20713;-77
2022/12/19 08:04:39;;;;;;;;;;;-1.10;99.90;;;;;;5038701;28;19956;-76
2022/12/19 08:07:06;;;;;;;;;;;-1.00;99.90;;;;;;5037940;28;19932;-77
2022/12/19 08:09:33;;;;;;;;;;;-1.00;99.90;;;;;;5035736;28;19932;-77
2022/12/19 08:12:00;;;;;;;;;;;-1.00;99.90;;;;;;5038541;28;19935;-76
2022/12/19 08:14:27;;;;;;;;;;;-1.00;99.90;;;;;;5033735;28;19929;-77
2022/12/19 08:16:54;;;;;;;;;;;-1.00;99.90;;;;;;5029462;28;19929;-76
2022/12/19 08:19:20;;;;;;;;;;;-1.00;99.90;;;;;;5038906;28;19936;-77
2022/12/19 08:21:47;;;;;;;;;;;-1.00;99.90;;;;;;5031945;28;19937;-76
2022/12/19 08:24:13;;;;;;;;;;;-1.00;99.90;;;;;;5041506;28;19932;-76
2022/12/19 08:26:40;;;;;;;;;;;-1.00;99.90;;;;;;5041549;28;20467;-75
2022/12/19 08:29:08;;;;;;;;;;;-1.00;99.90;;;;;;5042579;28;19928;-77
2022/12/19 08:31:34;;;;;;;;;;;-1.00;99.90;;;;;;5039061;28;19928;-77
2022/12/19 08:34:01;;;;;;;;;;;-1.00;99.90;;;;;;5041721;28;19935;-77
2022/12/19 08:36:28;;;;;;;;;;;-0.90;99.90;;;;;;5040429;28;19929;-76
2022/12/19 08:38:54;;;;;;;;;;;-0.90;99.90;;;;;;5041735;28;19928;-77
2022/12/19 08:41:22;;;;;;;;;;;-0.90;99.90;;;;;;5034938;28;19929;-76
2022/12/19 08:43:49;;;;;;;;;;;-0.90;99.90;;;;;;5042206;28;19929;-77
2022/12/19 08:46:18;;;;;;;;;;;-0.90;99.90;;;;;;5038629;28;19932;-77
2022/12/19 08:48:44;;;;;;;;;;;-0.90;99.90;;;;;;5039695;28;20427;-76
2022/12/19 08:51:12;;;;;;;;;;;-0.90;99.90;;;;;;5041051;28;19935;-76
2022/12/19 08:53:40;;;;;;;;;;;-0.90;99.90;;;;;;5043326;28;19939;-76
2022/12/19 08:56:08;;;;;;;;;;;-0.90;99.90;;;;;;5041996;28;19932;-77
2022/12/19 08:58:34;;;;;;;;;;;-0.80;99.90;;;;;;5040734;28;19933;-77
2022/12/19 09:01:03;;;;;;;;;;;-0.80;99.90;;;;;;5039083;28;19928;-77
2022/12/19 09:03:32;;;;;;;;;;;-0.80;99.90;;;;;;5037125;28;19929;-77
2022/12/19 09:05:59;;;;;;;;;;;-0.80;99.90;;;;;;5045325;28;19955;-76
2022/12/19 09:08:27;;;;;;;;;;;-0.80;99.90;;;;;;5053296;28;19963;-76
2022/12/19 09:10:57;;;;;;;;;;;-0.80;99.90;;;;;;5050400;28;19929;-76
2022/12/19 09:13:24;;;;;;;;;;;-0.80;99.90;;;;;;5045381;28;20396;-76
2022/12/19 09:15:58;;;;;;;;;;;-0.70;99.90;;;;;;5047152;28;19943;-76
2022/12/19 09:18:24;;;;;;;;;;;-0.70;99.90;;;;;;5041002;28;19932;-76
2022/12/19 09:20:54;;;;;;;;;;;-0.70;99.90;;;;;;5047701;28;19929;-75
2022/12/19 09:23:21;;;;;;;;;;;-0.70;99.90;;;;;;5049872;28;19929;-76
2022/12/19 09:25:48;;;;;;;;;;;-0.70;99.90;;;;;;5048685;28;19928;-77
2022/12/19 09:28:14;;;;;;;;;;;-0.70;99.90;;;;;;5047162;28;19929;-77
2022/12/19 09:30:41;;;;;;;;;;;-0.70;99.90;;;;;;5042761;28;19928;-74
2022/12/19 09:33:07;;;;;;;;;;;-0.70;99.90;;;;;;5040941;28;19929;-78
2022/12/19 09:35:34;;;;;;;;;;;-0.60;99.90;;;;;;5046080;28;20357;-76
2022/12/19 09:38:02;;;;;;;;;;;-0.60;99.90;;;;;;5046776;28;20665;-77
2022/12/19 09:40:33;;;;;;;;;;;-0.60;99.90;;;;;;5045470;28;19983;-78
2022/12/19 09:43:04;;;;;;;;;;;-0.60;99.90;;;;;;5045908;28;19929;-77
2022/12/19 09:45:39;;;;;;;;;;;-0.50;99.90;;;;;;5053026;28;19932;-78
2022/12/19 09:48:10;;;;;;;;;;;-0.50;99.90;;;;;;5052700;28;20487;-78
2022/12/19 09:50:43;;;;;;;;;;;-0.50;99.90;;;;;;5051380;28;19936;-76
2022/12/19 09:53:15;;;;;;;;;;;-0.50;99.90;;;;;;5054127;28;20540;-78
2022/12/19 09:55:42;;;;;;;;;;;-0.50;99.90;;;;;;5050241;28;19929;-79
2022/12/19 09:58:11;;;;;;;;;;;-0.50;99.90;;;;;;5050304;28;19932;-78
2022/12/19 10:00:40;;;;;;;;;;;-0.40;99.90;;;;;;5052486;28;19933;-78
2022/12/19 10:03:14;;;;;;;;;;;-0.40;99.90;;;;;;5051093;28;19939;-77
2022/12/19 10:05:42;;;;;;;;;;;-0.40;99.90;;;;;;5052653;28;19932;-76
2022/12/19 10:08:15;;;;;;;;;;;-0.30;99.90;;;;;;5047069;28;20545;-78
2022/12/19 10:10:47;;;;;;;;;;;-0.40;99.90;;;;;;5049653;28;19928;-78
2022/12/19 10:13:19;;;;;;;;;;;-0.30;99.90;;;;;;5050247;28;19929;-77
2022/12/19 10:15:49;;;;;;;;;;;-0.30;99.90;;;;;;5047823;28;19952;-77
2022/12/19 10:18:24;;;;;;;;;;;-0.30;99.90;;;;;;5048968;28;19935;-77
2022/12/19 10:20:53;;;;;;;;;;;-0.30;99.90;;;;;;5044500;28;19932;-77
2022/12/19 10:23:32;;;;;;;;;;;-0.20;99.90;;;;;;5049565;28;19954;-76
2022/12/19 10:25:59;;;;;;;;;;;-0.20;99.90;;;;;;5049304;28;19928;-77
2022/12/19 10:28:38;;;;;;;;;;;-0.20;99.90;;;;;;5050713;28;20193;-77
2022/12/19 10:31:10;;;;;;;;;;;-0.20;99.90;;;;;;5049478;28;19936;-77
2022/12/19 10:33:42;;;;;;;;;;;-0.10;99.90;;;;;;5050784;28;19956;-77
2022/12/19 10:36:10;;;;;;;;;;;-0.10;99.90;;;;;;5051016;28;19932;-77
2022/12/19 10:38:42;;;;;;;;;;;-0.10;99.90;;;;;;5048451;28;19933;-77
2022/12/19 10:41:14;;;;;;;;;;;-0.10;99.90;;;;;;5045833;28;19933;-76
2022/12/19 10:43:45;;;;;;;;;;;-0.10;99.90;;;;;;5047237;28;20412;-76
2022/12/19 10:46:14;;;;;;;;;;;-0.10;99.90;;;;;;5048062;28;19928;-77
2022/12/19 10:48:41;;;;;;;;;;;0.00;99.90;;;;;;5046597;28;19940;-77
2022/12/19 10:51:12;;;;;;;;;;;0.00;99.90;;;;;;5048735;28;19932;-77
2022/12/19 10:53:40;;;;;;;;;;;0.00;99.90;;;;;;5051243;28;19929;-77
2022/12/19 10:56:12;;;;;;;;;;;0.00;99.90;;;;;;5047701;28;19935;-77
2022/12/19 10:58:41;;;;;;;;;;;0.00;99.90;;;;;;5047997;28;19939;-77
2022/12/19 11:01:13;;;;;;;;;;;0.10;99.90;;;;;;5046914;28;19928;-77
2022/12/19 11:03:41;;;;;;;;;;;0.00;99.90;;;;;;5045297;28;19932;-77
2022/12/19 11:06:38;;;;;;;;;;;0.10;99.90;;;;;;5045214;28;20335;-77
2022/12/19 11:09:16;;;;;;;;;;;0.10;99.90;;;;;;5047010;28;19925;-78
2022/12/19 11:11:43;;;;;;;;;;;0.10;99.90;;;;;;5045057;28;19943;-76
2022/12/19 11:14:19;;;;;;;;;;;0.10;99.90;;;;;;5046941;28;19929;-77
2022/12/19 11:16:46;;;;;;;;;;;0.10;99.90;;;;;;5044559;28;19936;-77
2022/12/19 11:19:19;;;;;;;;;;;0.20;99.90;;;;;;5046498;28;19936;-77
2022/12/19 11:21:46;;;;;;;;;;;0.20;99.90;;;;;;5046229;28;19936;-77
2022/12/19 11:24:22;;;;;;;;;;;0.20;99.90;;;;;;5047117;28;19935;-77
2022/12/19 11:26:49;;;;;;;;;;;0.20;99.90;;;;;;5043037;28;20289;-76
2022/12/19 11:29:17;;;;;;;;;;;0.20;99.90;;;;;;5046072;28;19929;-78
2022/12/19 11:31:45;;;;;;;;;;;0.20;99.90;;;;;;5045525;28;19941;-78
2022/12/19 11:34:14;;;;;;;;;;;0.20;99.90;;;;;;5045479;28;19935;-76
2022/12/19 11:36:44;;;;;;;;;;;0.30;99.90;;;;;;5044349;28;21711;-77
2022/12/19 11:39:18;;;;;;;;;;;0.30;99.90;;;;;;5044923;28;19929;-78
2022/12/19 11:41:48;;;;;;;;;;;0.30;99.90;;;;;;5046781;28;19932;-77
2022/12/19 11:44:22;;;;;;;;;;;0.30;99.90;;;;;;5043787;28;20829;-77
2022/12/19 11:46:52;;;;;;;;;;;0.40;99.90;;;;;;5042641;28;19936;-76
2022/12/19 11:49:25;;;;;;;;;;;0.40;99.90;;;;;;5042499;28;19928;-77
2022/12/19 11:51:54;;;;;;;;;;;0.40;99.90;;;;;;5043458;28;20396;-77
2022/12/19 11:54:24;;;;;;;;;;;0.40;99.90;;;;;;5040656;28;19933;-77
2022/12/19 11:56:51;;;;;;;;;;;0.40;99.90;;;;;;5039737;28;19932;-76
2022/12/19 11:59:18;;;;;;;;;;;0.40;99.90;;;;;;5040325;28;20513;-76
2022/12/19 12:01:59;;;;;;;;;;;0.50;99.90;;;;;;5040781;28;20631;-77
2022/12/19 12:04:40;;;;;;;;;;;0.50;99.90;;;;;;5043508;28;20686;-76
2022/12/19 12:07:07;;;;;;;;;;;0.50;99.90;;;;;;5041149;28;19952;-76
2022/12/19 12:09:37;;;;;;;;;;;0.50;99.90;;;;;;5038106;28;19939;-76
2022/12/19 12:12:10;;;;;;;;;;;0.50;99.90;;;;;;5035160;28;20246;-75
2022/12/19 12:14:43;;;;;;;;;;;0.50;99.90;;;;;;5034240;28;19928;-77
2022/12/19 12:17:22;;;;;;;;;;;0.50;99.90;;;;;;5036012;28;19972;-76
2022/12/19 12:19:56;;;;;;;;;;;0.50;99.90;;;;;;5042725;28;19932;-76
2022/12/19 12:22:36;;;;;;;;;;;0.50;99.90;;;;;;5039451;28;19933;-77
2022/12/19 12:25:13;;;;;;;;;;;0.60;99.90;;;;;;5038453;28;19992;-77
2022/12/19 12:27:43;;;;;;;;;;;0.50;99.90;;;;;;5040037;28;19940;-76
2022/12/19 12:30:11;;;;;;;;;;;0.60;99.90;;;;;;5035071;28;19929;-76
2022/12/19 12:32:52;;;;;;;;;;;0.60;99.90;;;;;;5035414;28;19929;-76
2022/12/19 12:35:26;;;;;;;;;;;0.60;99.90;;;;;;5039472;28;19935;-76
2022/12/19 12:37:57;;;;;;;;;;;0.60;99.90;;;;;;5039466;28;19929;-77
2022/12/19 12:40:42;;;;;;;;;;;0.60;99.90;;;;;;5041290;28;20388;-76
2022/12/19 12:43:17;;;;;;;;;;;0.60;99.90;;;;;;5039068;28;19929;-76
2022/12/19 12:45:44;;;;;;;;;;;0.70;99.90;;;;;;5042098;28;19951;-76
2022/12/19 12:48:17;;;;;;;;;;;0.70;99.90;;;;;;5036284;28;19928;-75
2022/12/19 12:50:44;;;;;;;;;;;0.70;99.90;;;;;;5040466;28;20053;-76
2022/12/19 12:53:13;;;;;;;;;;;0.70;99.90;;;;;;5040328;28;20431;-76
2022/12/19 12:55:42;;;;;;;;;;;0.70;99.90;;;;;;5039374;28;19936;-76
2022/12/19 12:58:23;;;;;;;;;;;0.70;99.90;;;;;;5040649;28;19933;-76
2022/12/19 13:01:05;;;;;;;;;;;0.70;99.90;;;;;;5037434;28;20043;-75
2022/12/19 13:03:31;;;;;;;;;;;0.80;99.90;;;;;;5038917;28;19936;-76
2022/12/19 13:06:04;;;;;;;;;;;0.80;99.90;;;;;;5040217;28;19940;-76
2022/12/19 13:08:34;;;;;;;;;;;0.80;99.90;;;;;;5038741;28;19936;-75
2022/12/19 13:11:02;;;;;;;;;;;0.80;99.90;;;;;;5040470;28;19929;-77
2022/12/19 13:13:49;;;;;;;;;;;0.80;99.90;;;;;;5041934;28;19940;-75
2022/12/19 13:16:34;;;;;;;;;;;0.90;99.90;;;;;;5039147;28;19937;-75
2022/12/19 13:19:03;;;;;;;;;;;0.90;99.90;;;;;;5039181;28;19937;-75
2022/12/19 13:21:52;;;;;;;;;;;0.90;99.90;;;;;;5046179;28;19935;-77
2022/12/19 13:24:21;;;;;;;;;;;0.80;99.90;;;;;;5040420;28;19944;-78
2022/12/19 13:26:51;;;;;;;;;;;0.90;99.90;;;;;;5041998;28;19928;-77
2022/12/19 13:29:28;;;;;;;;;;;0.90;99.90;;;;;;5046983;28;20796;-78
2022/12/19 13:32:07;;;;;;;;;;;0.90;99.90;;;;;;5042585;28;20511;-78
2022/12/19 13:34:35;;;;;;;;;;;0.90;99.90;;;;;;5045245;28;19929;-76
2022/12/19 13:37:23;;;;;;;;;;;1.00;99.90;;;;;;5046368;28;20510;-77
2022/12/19 13:40:00;;;;;;;;;;;1.00;99.90;;;;;;5042806;28;19929;-77
2022/12/19 13:45:14;;;;;;;;;;;1.00;99.90;;;;;;5047566;28;19942;-77
2022/12/19 13:47:42;;;;;;;;;;;1.00;99.90;;;;;;5045591;28;19935;-76
2022/12/19 13:50:15;;;;;;;;;;;1.00;99.90;;;;;;5045364;28;19928;-78
2022/12/19 13:52:47;;;;;;;;;;;1.00;99.90;;;;;;5044618;28;19936;-76
2022/12/19 13:55:15;;;;;;;;;;;1.00;99.90;;;;;;5044880;28;20315;-77
2022/12/19 13:57:41;;;;;;;;;;;1.00;99.90;;;;;;5047724;28;19935;-76
2022/12/19 14:00:09;;;;;;;;;;;1.00;99.90;;;;;;5042608;28;19940;-76
2022/12/19 14:02:38;;;;;;;;;;;1.00;99.90;;;;;;5046836;28;19929;-78
2022/12/19 14:05:05;;;;;;;;;;;1.00;99.90;;;;;;5048097;28;19936;-77
2022/12/19 14:07:35;;;;;;;;;;;1.10;99.90;;;;;;5044663;28;19947;-77
2022/12/19 14:10:04;;;;;;;;;;;1.10;99.90;;;;;;5046669;28;20458;-76
2022/12/19 14:15:23;;;;;;;;;;;1.10;99.90;;;;;;5045376;28;20068;-77
2022/12/19 14:17:49;;;;;;;;;;;1.10;99.90;;;;;;5039600;28;20464;-77
2022/12/19 14:20:18;;;;;;;;;;;1.00;99.90;;;;;;5038000;28;20010;-76
2022/12/19 14:22:44;;;;;;;;;;;1.10;99.90;;;;;;5047676;28;20535;-78
2022/12/19 14:25:11;;;;;;;;;;;1.10;99.90;;;;;;5054206;28;19940;-76
2022/12/19 14:27:40;;;;;;;;;;;1.10;99.90;;;;;;5055436;28;19938;-77
2022/12/19 14:30:11;;;;;;;;;;;1.10;99.90;;;;;;5053197;28;19929;-77
2022/12/19 14:32:38;;;;;;;;;;;1.10;99.90;;;;;;5058728;28;19933;-76
2022/12/19 14:35:06;;;;;;;;;;;1.10;99.90;;;;;;5061118;28;19933;-76
2022/12/19 14:37:34;;;;;;;;;;;1.10;99.90;;;;;;5059648;28;19932;-76
2022/12/19 14:40:05;;;;;;;;;;;1.10;99.90;;;;;;5059060;28;19929;-77
2022/12/19 14:45:34;;;;;;;;;;;1.10;99.90;;;;;;5062971;28;19982;-77
2022/12/19 14:48:01;;;;;;;;;;;1.10;99.90;;;;;;5058173;28;19925;-78